Main page
METAR-TAF:

METAR-TAF

Airports :

Trieste – Friuli Venezia Giulia Airport

Trieste / Ronchi dei Legionari, Italy

latitude: 45-49N, longitude: 013-29E, elevation: 12 m

Current weather observation

The report was made 41 minutes ago, at 20:50 UTC
Wind 2 kt from variable directions
Temperature 10°C
Humidity 82%
Pressure 1017 hPa
Visibility 10 km or more
Scattered clouds at a height of 10000 ft

METAR: LIPQ 232050Z VRB02KT 9999 SCT100 10/07 Q1017

Time: 23:31 (21:31 UTC)

Forecast

The report was made 4 hours and 31 minutes ago, at 17:00 UTC
Forecast valid from 23 at 18 UTC to 24 at 18 UTC
Wind 5 kt from variable directions
Visibility 10 km or more
no clouds below 1500 m and no cumulonimbus

TAF: LIPQ 231700Z 2318/2418 VRB05KT CAVOK

Weather observations and forecasts of more than 4000 airports (METAR and TAF reports).

The available stations are represented by yellow and red dots on the map.

Hover mouse over dot to see the name of the station.

Then click to see weather observations and forecasts.

To change the map : click on the green buttons with a black cross to zoom in, on the green button with a dash to zoom out, or on the green arrows for adjacent maps.


METAR-TAF: